KPSO

Details ICAO KPSO
Name STEVENS FIELD
Region United States
Timezone America/Denver (UTC-6.0)
Plans Departing 11
Arriving 15
Stats Elevation 7,700 ft / 2,347 m (AMSL)
Location 37.286254° -107.056010°
Runways 1
Magnetic Variation 8.927° E
Sunrise 2018-05-20 11:57:05 UTC / 2018-05-20 05:57:05 Local
Sunset 2018-05-21 02:15:17 UTC / 2018-05-20 20:15:17 Local
Advertisement - Login to hide

Runways

ID Width Length Bearing (true) Bearing (mag) Surface Threshold Offset Overrun Length
01 100 ft / 30 m 8,111 ft / 2,472 m 23.70° 14.77° Asphalt 0 ft / 0 m 0 ft / 0 m
19 100 ft / 30 m 8,111 ft / 2,472 m 203.71° 194.78° Asphalt 0 ft / 0 m 0 ft / 0 m

Map

Weather


0- 5 10 15 20 25 30 35+ Temperature / ° C

Clouds and Precipitation
Forecast for 2018-05-20 12:00 UTC. Updated an hour ago

Ground ~20,000 ft ~40,000 ft Winds

METAR

KPSO 200955Z AUTO 00000KT 10SM CLR 03/M04 A3015 RMK AO2 T00281042

TAF

Not found

Frequencies

Unicom 122.70 MHz CTAF/UNICOM
Warning: Do not use this data for real-world aviation or navigation. No guarantee of current accuracy is given.